sensor_id;sensor_type;location;lat;lon;timestamp;P1;durP1;ratioP1;P2;durP2;ratioP2
51987;SDS011;38003;52.012;4.346;2023-12-20T00:02:14;13.70;;;4.43;;
51987;SDS011;38003;52.012;4.346;2023-12-20T00:04:43;10.57;;;3.40;;
51987;SDS011;38003;52.012;4.346;2023-12-20T00:07:11;15.17;;;4.37;;
51987;SDS011;38003;52.012;4.346;2023-12-20T00:09:40;12.77;;;3.70;;
51987;SDS011;38003;52.012;4.346;2023-12-20T00:12:08;14.27;;;4.20;;
51987;SDS011;38003;52.012;4.346;2023-12-20T00:14:36;16.17;;;3.50;;
51987;SDS011;38003;52.012;4.346;2023-12-20T00:17:06;15.17;;;3.87;;
51987;SDS011;38003;52.012;4.346;2023-12-20T00:19:34;13.07;;;3.60;;
51987;SDS011;38003;52.012;4.346;2023-12-20T00:22:03;17.10;;;3.70;;
51987;SDS011;38003;52.012;4.346;2023-12-20T00:24:31;13.67;;;3.60;;
51987;SDS011;38003;52.012;4.346;2023-12-20T00:26:59;12.47;;;3.70;;
51987;SDS011;38003;52.012;4.346;2023-12-20T00:29:28;19.70;;;5.13;;
51987;SDS011;38003;52.012;4.346;2023-12-20T00:31:56;18.17;;;5.37;;
51987;SDS011;38003;52.012;4.346;2023-12-20T00:34:26;15.17;;;4.23;;
51987;SDS011;38003;52.012;4.346;2023-12-20T00:36:54;11.57;;;3.27;;
51987;SDS011;38003;52.012;4.346;2023-12-20T00:39:23;14.97;;;4.10;;
51987;SDS011;38003;52.012;4.346;2023-12-20T00:41:51;13.47;;;4.07;;
51987;SDS011;38003;52.012;4.346;2023-12-20T00:44:19;12.40;;;3.67;;
51987;SDS011;38003;52.012;4.346;2023-12-20T00:46:47;14.63;;;3.80;;
51987;SDS011;38003;52.012;4.346;2023-12-20T00:49:16;14.43;;;3.50;;
51987;SDS011;38003;52.012;4.346;2023-12-20T00:51:45;13.23;;;4.10;;
51987;SDS011;38003;52.012;4.346;2023-12-20T00:54:16;14.37;;;3.57;;
51987;SDS011;38003;52.012;4.346;2023-12-20T00:56:44;16.27;;;4.43;;
51987;SDS011;38003;52.012;4.346;2023-12-20T00:59:13;18.83;;;4.37;;
51987;SDS011;38003;52.012;4.346;2023-12-20T01:01:42;11.50;;;3.53;;
51987;SDS011;38003;52.012;4.346;2023-12-20T01:04:10;12.93;;;3.43;;
51987;SDS011;38003;52.012;4.346;2023-12-20T01:06:38;13.53;;;4.17;;
51987;SDS011;38003;52.012;4.346;2023-12-20T01:09:08;12.17;;;3.40;;
51987;SDS011;38003;52.012;4.346;2023-12-20T01:11:36;20.63;;;3.90;;
51987;SDS011;38003;52.012;4.346;2023-12-20T01:14:04;15.80;;;4.70;;
51987;SDS011;38003;52.012;4.346;2023-12-20T01:16:32;20.57;;;5.00;;
51987;SDS011;38003;52.012;4.346;2023-12-20T01:19:01;13.57;;;4.17;;
51987;SDS011;38003;52.012;4.346;2023-12-20T01:21:29;15.13;;;4.17;;
51987;SDS011;38003;52.012;4.346;2023-12-20T01:23:58;11.30;;;3.10;;
51987;SDS011;38003;52.012;4.346;2023-12-20T01:26:27;14.40;;;3.40;;
51987;SDS011;38003;52.012;4.346;2023-12-20T01:28:55;7.23;;;2.97;;
51987;SDS011;38003;52.012;4.346;2023-12-20T01:31:24;4.93;;;2.30;;
51987;SDS011;38003;52.012;4.346;2023-12-20T01:33:53;11.30;;;2.37;;
51987;SDS011;38003;52.012;4.346;2023-12-20T01:36:22;10.83;;;2.67;;
51987;SDS011;38003;52.012;4.346;2023-12-20T01:38:50;11.63;;;3.33;;
51987;SDS011;38003;52.012;4.346;2023-12-20T01:41:18;11.43;;;3.60;;
51987;SDS011;38003;52.012;4.346;2023-12-20T01:43:48;10.17;;;3.87;;
51987;SDS011;38003;52.012;4.346;2023-12-20T01:46:17;15.47;;;3.40;;
51987;SDS011;38003;52.012;4.346;2023-12-20T01:48:46;14.80;;;4.50;;
51987;SDS011;38003;52.012;4.346;2023-12-20T01:51:15;19.30;;;4.17;;
51987;SDS011;38003;52.012;4.346;2023-12-20T01:53:43;12.73;;;3.47;;
51987;SDS011;38003;52.012;4.346;2023-12-20T01:56:12;20.57;;;5.10;;
51987;SDS011;38003;52.012;4.346;2023-12-20T01:58:42;18.07;;;3.70;;
51987;SDS011;38003;52.012;4.346;2023-12-20T02:01:12;9.13;;;3.10;;
51987;SDS011;38003;52.012;4.346;2023-12-20T02:03:41;12.10;;;3.53;;
51987;SDS011;38003;52.012;4.346;2023-12-20T02:06:09;13.60;;;3.30;;
51987;SDS011;38003;52.012;4.346;2023-12-20T02:08:38;11.73;;;3.33;;
51987;SDS011;38003;52.012;4.346;2023-12-20T02:11:06;12.17;;;3.03;;
51987;SDS011;38003;52.012;4.346;2023-12-20T02:13:34;13.77;;;3.20;;
51987;SDS011;38003;52.012;4.346;2023-12-20T02:16:02;10.73;;;3.10;;
51987;SDS011;38003;52.012;4.346;2023-12-20T02:18:33;19.20;;;3.37;;
51987;SDS011;38003;52.012;4.346;2023-12-20T02:21:01;15.37;;;3.73;;
51987;SDS011;38003;52.012;4.346;2023-12-20T02:23:32;15.33;;;3.23;;
51987;SDS011;38003;52.012;4.346;2023-12-20T02:26:01;9.70;;;3.00;;
51987;SDS011;38003;52.012;4.346;2023-12-20T02:28:29;9.47;;;2.73;;
51987;SDS011;38003;52.012;4.346;2023-12-20T02:30:57;19.40;;;3.63;;
51987;SDS011;38003;52.012;4.346;2023-12-20T02:33:26;13.63;;;3.60;;
51987;SDS011;38003;52.012;4.346;2023-12-20T02:35:54;14.40;;;3.67;;
51987;SDS011;38003;52.012;4.346;2023-12-20T02:38:23;14.70;;;3.53;;
51987;SDS011;38003;52.012;4.346;2023-12-20T02:40:52;14.87;;;3.97;;
51987;SDS011;38003;52.012;4.346;2023-12-20T02:43:20;10.27;;;2.67;;
51987;SDS011;38003;52.012;4.346;2023-12-20T02:45:49;15.20;;;3.77;;
51987;SDS011;38003;52.012;4.346;2023-12-20T02:48:17;12.80;;;3.60;;
51987;SDS011;38003;52.012;4.346;2023-12-20T02:50:46;8.87;;;3.63;;
51987;SDS011;38003;52.012;4.346;2023-12-20T02:53:15;15.93;;;3.80;;
51987;SDS011;38003;52.012;4.346;2023-12-20T02:55:43;10.83;;;3.10;;
51987;SDS011;38003;52.012;4.346;2023-12-20T02:58:12;10.63;;;2.93;;
51987;SDS011;38003;52.012;4.346;2023-12-20T03:00:41;14.80;;;3.90;;
51987;SDS011;38003;52.012;4.346;2023-12-20T03:03:09;13.50;;;3.20;;
51987;SDS011;38003;52.012;4.346;2023-12-20T03:05:37;9.40;;;2.80;;
51987;SDS011;38003;52.012;4.346;2023-12-20T03:08:06;13.33;;;3.27;;
51987;SDS011;38003;52.012;4.346;2023-12-20T03:10:34;15.80;;;3.50;;
51987;SDS011;38003;52.012;4.346;2023-12-20T03:13:02;11.07;;;3.20;;
51987;SDS011;38003;52.012;4.346;2023-12-20T03:15:32;11.30;;;3.20;;
51987;SDS011;38003;52.012;4.346;2023-12-20T03:18:00;15.10;;;3.17;;
51987;SDS011;38003;52.012;4.346;2023-12-20T03:20:28;15.43;;;4.03;;
51987;SDS011;38003;52.012;4.346;2023-12-20T03:23:00;15.93;;;3.67;;
51987;SDS011;38003;52.012;4.346;2023-12-20T03:25:28;8.13;;;2.83;;
51987;SDS011;38003;52.012;4.346;2023-12-20T03:27:58;11.20;;;2.53;;
51987;SDS011;38003;52.012;4.346;2023-12-20T03:30:26;18.17;;;3.50;;
51987;SDS011;38003;52.012;4.346;2023-12-20T03:32:55;13.67;;;2.97;;
51987;SDS011;38003;52.012;4.346;2023-12-20T03:35:24;15.83;;;3.40;;
51987;SDS011;38003;52.012;4.346;2023-12-20T03:37:52;14.63;;;3.30;;
51987;SDS011;38003;52.012;4.346;2023-12-20T03:40:20;12.73;;;3.03;;
51987;SDS011;38003;52.012;4.346;2023-12-20T03:42:49;16.10;;;3.43;;
51987;SDS011;38003;52.012;4.346;2023-12-20T03:45:17;10.03;;;2.83;;
51987;SDS011;38003;52.012;4.346;2023-12-20T03:47:45;17.00;;;3.47;;
51987;SDS011;38003;52.012;4.346;2023-12-20T03:50:16;14.37;;;3.57;;
51987;SDS011;38003;52.012;4.346;2023-12-20T03:52:44;15.73;;;3.53;;
51987;SDS011;38003;52.012;4.346;2023-12-20T03:55:12;13.27;;;3.47;;
51987;SDS011;38003;52.012;4.346;2023-12-20T03:57:41;11.73;;;3.60;;
51987;SDS011;38003;52.012;4.346;2023-12-20T04:00:10;13.17;;;3.63;;
51987;SDS011;38003;52.012;4.346;2023-12-20T04:02:38;10.47;;;3.60;;
51987;SDS011;38003;52.012;4.346;2023-12-20T04:05:07;13.17;;;4.07;;
51987;SDS011;38003;52.012;4.346;2023-12-20T04:07:37;10.17;;;3.40;;
51987;SDS011;38003;52.012;4.346;2023-12-20T04:10:06;11.80;;;3.33;;
51987;SDS011;38003;52.012;4.346;2023-12-20T04:12:34;11.17;;;3.37;;
51987;SDS011;38003;52.012;4.346;2023-12-20T04:15:03;12.73;;;3.77;;
51987;SDS011;38003;52.012;4.346;2023-12-20T04:17:35;19.20;;;4.30;;
51987;SDS011;38003;52.012;4.346;2023-12-20T04:20:04;12.70;;;3.30;;
51987;SDS011;38003;52.012;4.346;2023-12-20T04:22:33;12.37;;;3.53;;
51987;SDS011;38003;52.012;4.346;2023-12-20T04:25:02;9.03;;;2.80;;
51987;SDS011;38003;52.012;4.346;2023-12-20T04:27:31;15.23;;;3.17;;
51987;SDS011;38003;52.012;4.346;2023-12-20T04:29:59;26.17;;;4.03;;
51987;SDS011;38003;52.012;4.346;2023-12-20T04:32:27;10.90;;;3.03;;
51987;SDS011;38003;52.012;4.346;2023-12-20T04:34:56;10.30;;;3.20;;
51987;SDS011;38003;52.012;4.346;2023-12-20T04:37:24;16.80;;;3.07;;
51987;SDS011;38003;52.012;4.346;2023-12-20T04:39:52;13.07;;;2.77;;
51987;SDS011;38003;52.012;4.346;2023-12-20T04:42:22;19.20;;;4.70;;
51987;SDS011;38003;52.012;4.346;2023-12-20T04:44:50;15.27;;;3.60;;
51987;SDS011;38003;52.012;4.346;2023-12-20T04:47:19;13.70;;;2.80;;
51987;SDS011;38003;52.012;4.346;2023-12-20T04:49:47;9.47;;;2.63;;
51987;SDS011;38003;52.012;4.346;2023-12-20T04:52:27;13.13;;;3.30;;
51987;SDS011;38003;52.012;4.346;2023-12-20T04:54:56;13.20;;;3.30;;
51987;SDS011;38003;52.012;4.346;2023-12-20T04:57:27;14.70;;;3.40;;
51987;SDS011;38003;52.012;4.346;2023-12-20T04:59:55;10.67;;;2.73;;
51987;SDS011;38003;52.012;4.346;2023-12-20T05:02:23;15.73;;;3.73;;
51987;SDS011;38003;52.012;4.346;2023-12-20T05:04:51;16.63;;;3.13;;
51987;SDS011;38003;52.012;4.346;2023-12-20T05:07:21;13.23;;;3.23;;
51987;SDS011;38003;52.012;4.346;2023-12-20T05:09:49;17.87;;;4.50;;
51987;SDS011;38003;52.012;4.346;2023-12-20T05:12:18;12.90;;;3.67;;
51987;SDS011;38003;52.012;4.346;2023-12-20T05:14:47;17.07;;;4.33;;
51987;SDS011;38003;52.012;4.346;2023-12-20T05:17:15;15.07;;;3.93;;
51987;SDS011;38003;52.012;4.346;2023-12-20T05:19:44;19.33;;;4.47;;
51987;SDS011;38003;52.012;4.346;2023-12-20T05:22:12;17.73;;;4.63;;
51987;SDS011;38003;52.012;4.346;2023-12-20T05:24:40;18.40;;;5.50;;
51987;SDS011;38003;52.012;4.346;2023-12-20T05:27:08;15.83;;;3.97;;
51987;SDS011;38003;52.012;4.346;2023-12-20T05:29:37;15.03;;;4.10;;
51987;SDS011;38003;52.012;4.346;2023-12-20T05:32:07;16.07;;;3.93;;
51987;SDS011;38003;52.012;4.346;2023-12-20T05:34:35;15.90;;;4.20;;
51987;SDS011;38003;52.012;4.346;2023-12-20T05:37:03;15.40;;;4.00;;
51987;SDS011;38003;52.012;4.346;2023-12-20T05:39:32;20.43;;;5.30;;
51987;SDS011;38003;52.012;4.346;2023-12-20T05:42:00;13.97;;;4.67;;
51987;SDS011;38003;52.012;4.346;2023-12-20T05:44:28;19.43;;;4.90;;
51987;SDS011;38003;52.012;4.346;2023-12-20T05:46:56;18.07;;;4.93;;
51987;SDS011;38003;52.012;4.346;2023-12-20T05:49:26;14.57;;;4.60;;
51987;SDS011;38003;52.012;4.346;2023-12-20T05:51:54;13.00;;;3.93;;
51987;SDS011;38003;52.012;4.346;2023-12-20T05:54:22;17.40;;;4.30;;
51987;SDS011;38003;52.012;4.346;2023-12-20T05:56:51;12.63;;;4.17;;
51987;SDS011;38003;52.012;4.346;2023-12-20T05:59:19;14.27;;;4.63;;
51987;SDS011;38003;52.012;4.346;2023-12-20T06:01:47;13.77;;;4.03;;
51987;SDS011;38003;52.012;4.346;2023-12-20T06:04:16;20.50;;;4.47;;
51987;SDS011;38003;52.012;4.346;2023-12-20T06:06:49;23.90;;;4.73;;
51987;SDS011;38003;52.012;4.346;2023-12-20T06:09:17;14.30;;;4.07;;
51987;SDS011;38003;52.012;4.346;2023-12-20T06:11:45;13.03;;;4.27;;
51987;SDS011;38003;52.012;4.346;2023-12-20T06:14:14;19.03;;;4.13;;
51987;SDS011;38003;52.012;4.346;2023-12-20T06:16:42;18.40;;;4.87;;
51987;SDS011;38003;52.012;4.346;2023-12-20T06:19:11;15.20;;;4.37;;
51987;SDS011;38003;52.012;4.346;2023-12-20T06:21:40;16.70;;;3.90;;
51987;SDS011;38003;52.012;4.346;2023-12-20T06:24:12;16.73;;;5.43;;
51987;SDS011;38003;52.012;4.346;2023-12-20T06:26:40;12.17;;;3.80;;
51987;SDS011;38003;52.012;4.346;2023-12-20T06:29:08;19.80;;;5.73;;
51987;SDS011;38003;52.012;4.346;2023-12-20T06:31:37;17.73;;;4.47;;
51987;SDS011;38003;52.012;4.346;2023-12-20T06:34:05;14.90;;;4.40;;
51987;SDS011;38003;52.012;4.346;2023-12-20T06:36:33;14.83;;;3.90;;
51987;SDS011;38003;52.012;4.346;2023-12-20T06:39:02;7.27;;;3.53;;
51987;SDS011;38003;52.012;4.346;2023-12-20T06:41:32;15.90;;;4.37;;
51987;SDS011;38003;52.012;4.346;2023-12-20T06:44:00;18.93;;;4.10;;
51987;SDS011;38003;52.012;4.346;2023-12-20T06:46:28;14.27;;;3.87;;
51987;SDS011;38003;52.012;4.346;2023-12-20T06:48:56;11.80;;;3.90;;
51987;SDS011;38003;52.012;4.346;2023-12-20T06:51:25;17.20;;;4.40;;
51987;SDS011;38003;52.012;4.346;2023-12-20T06:53:53;18.00;;;5.03;;
51987;SDS011;38003;52.012;4.346;2023-12-20T06:56:21;19.30;;;5.23;;
51987;SDS011;38003;52.012;4.346;2023-12-20T06:58:51;16.40;;;4.63;;
51987;SDS011;38003;52.012;4.346;2023-12-20T07:01:19;14.40;;;4.87;;
51987;SDS011;38003;52.012;4.346;2023-12-20T07:03:47;15.80;;;5.10;;
51987;SDS011;38003;52.012;4.346;2023-12-20T07:06:16;15.23;;;5.17;;
51987;SDS011;38003;52.012;4.346;2023-12-20T07:08:45;10.13;;;3.90;;
51987;SDS011;38003;52.012;4.346;2023-12-20T07:11:13;11.10;;;3.57;;
51987;SDS011;38003;52.012;4.346;2023-12-20T07:13:41;21.77;;;5.17;;
51987;SDS011;38003;52.012;4.346;2023-12-20T07:16:11;15.17;;;5.50;;
51987;SDS011;38003;52.012;4.346;2023-12-20T07:18:39;15.77;;;4.77;;
51987;SDS011;38003;52.012;4.346;2023-12-20T07:21:08;15.77;;;4.30;;
51987;SDS011;38003;52.012;4.346;2023-12-20T07:23:36;14.37;;;4.33;;
51987;SDS011;38003;52.012;4.346;2023-12-20T07:26:04;21.13;;;5.20;;
51987;SDS011;38003;52.012;4.346;2023-12-20T07:28:32;14.57;;;4.73;;
51987;SDS011;38003;52.012;4.346;2023-12-20T07:31:01;17.77;;;5.03;;
51987;SDS011;38003;52.012;4.346;2023-12-20T07:33:30;10.90;;;4.87;;
51987;SDS011;38003;52.012;4.346;2023-12-20T07:36:05;19.27;;;5.80;;
51987;SDS011;38003;52.012;4.346;2023-12-20T07:38:33;18.77;;;5.47;;
51987;SDS011;38003;52.012;4.346;2023-12-20T07:41:02;13.07;;;4.53;;
51987;SDS011;38003;52.012;4.346;2023-12-20T07:43:30;16.47;;;5.13;;
51987;SDS011;38003;52.012;4.346;2023-12-20T07:46:03;20.73;;;4.90;;
51987;SDS011;38003;52.012;4.346;2023-12-20T07:48:33;11.23;;;4.97;;
51987;SDS011;38003;52.012;4.346;2023-12-20T07:51:02;19.23;;;5.20;;
51987;SDS011;38003;52.012;4.346;2023-12-20T07:53:30;8.00;;;3.63;;
51987;SDS011;38003;52.012;4.346;2023-12-20T07:55:58;9.63;;;4.07;;
51987;SDS011;38003;52.012;4.346;2023-12-20T07:58:26;13.83;;;5.03;;
51987;SDS011;38003;52.012;4.346;2023-12-20T08:01:15;14.70;;;5.73;;
51987;SDS011;38003;52.012;4.346;2023-12-20T08:03:46;11.57;;;4.97;;
51987;SDS011;38003;52.012;4.346;2023-12-20T08:06:14;13.33;;;5.20;;
51987;SDS011;38003;52.012;4.346;2023-12-20T08:08:43;12.37;;;6.33;;
51987;SDS011;38003;52.012;4.346;2023-12-20T08:11:20;16.53;;;6.50;;
51987;SDS011;38003;52.012;4.346;2023-12-20T08:13:48;18.00;;;6.50;;
51987;SDS011;38003;52.012;4.346;2023-12-20T08:16:17;11.33;;;5.20;;
51987;SDS011;38003;52.012;4.346;2023-12-20T08:18:47;15.50;;;5.90;;
51987;SDS011;38003;52.012;4.346;2023-12-20T08:21:15;13.07;;;5.10;;
51987;SDS011;38003;52.012;4.346;2023-12-20T08:23:46;16.40;;;5.40;;
51987;SDS011;38003;52.012;4.346;2023-12-20T08:26:18;20.60;;;6.17;;
51987;SDS011;38003;52.012;4.346;2023-12-20T08:28:47;11.93;;;6.20;;
51987;SDS011;38003;52.012;4.346;2023-12-20T08:31:15;17.13;;;6.57;;
51987;SDS011;38003;52.012;4.346;2023-12-20T08:33:44;16.07;;;5.57;;
51987;SDS011;38003;52.012;4.346;2023-12-20T08:36:14;11.20;;;5.97;;
51987;SDS011;38003;52.012;4.346;2023-12-20T08:38:44;15.03;;;5.43;;
51987;SDS011;38003;52.012;4.346;2023-12-20T08:41:12;12.60;;;5.77;;
51987;SDS011;38003;52.012;4.346;2023-12-20T08:43:40;13.90;;;5.40;;
51987;SDS011;38003;52.012;4.346;2023-12-20T08:46:08;20.50;;;7.17;;
51987;SDS011;38003;52.012;4.346;2023-12-20T08:48:38;13.17;;;5.43;;
51987;SDS011;38003;52.012;4.346;2023-12-20T08:51:06;14.53;;;4.87;;
51987;SDS011;38003;52.012;4.346;2023-12-20T08:53:36;8.03;;;5.13;;
51987;SDS011;38003;52.012;4.346;2023-12-20T08:56:05;17.13;;;5.57;;
51987;SDS011;38003;52.012;4.346;2023-12-20T08:58:33;17.73;;;5.83;;
51987;SDS011;38003;52.012;4.346;2023-12-20T09:01:02;18.57;;;5.97;;
51987;SDS011;38003;52.012;4.346;2023-12-20T09:03:31;16.97;;;6.00;;
51987;SDS011;38003;52.012;4.346;2023-12-20T09:05:59;15.33;;;5.40;;
51987;SDS011;38003;52.012;4.346;2023-12-20T09:08:27;9.90;;;5.40;;
51987;SDS011;38003;52.012;4.346;2023-12-20T09:10:57;14.47;;;5.10;;
51987;SDS011;38003;52.012;4.346;2023-12-20T09:13:25;14.57;;;5.47;;
51987;SDS011;38003;52.012;4.346;2023-12-20T09:15:55;18.47;;;5.03;;
51987;SDS011;38003;52.012;4.346;2023-12-20T09:18:23;13.57;;;5.50;;
51987;SDS011;38003;52.012;4.346;2023-12-20T09:20:52;16.63;;;5.93;;
51987;SDS011;38003;52.012;4.346;2023-12-20T09:23:20;10.60;;;4.10;;
51987;SDS011;38003;52.012;4.346;2023-12-20T09:25:48;15.83;;;5.00;;
51987;SDS011;38003;52.012;4.346;2023-12-20T09:28:21;16.47;;;5.33;;
51987;SDS011;38003;52.012;4.346;2023-12-20T09:30:50;13.33;;;5.43;;
51987;SDS011;38003;52.012;4.346;2023-12-20T09:33:18;11.37;;;4.40;;
51987;SDS011;38003;52.012;4.346;2023-12-20T09:35:46;12.97;;;4.47;;
51987;SDS011;38003;52.012;4.346;2023-12-20T09:38:15;17.07;;;5.43;;
51987;SDS011;38003;52.012;4.346;2023-12-20T09:40:43;15.23;;;5.47;;
51987;SDS011;38003;52.012;4.346;2023-12-20T09:43:13;11.20;;;4.67;;
51987;SDS011;38003;52.012;4.346;2023-12-20T09:45:45;15.40;;;5.10;;
51987;SDS011;38003;52.012;4.346;2023-12-20T09:48:15;14.17;;;5.10;;
51987;SDS011;38003;52.012;4.346;2023-12-20T09:50:44;17.00;;;5.47;;
51987;SDS011;38003;52.012;4.346;2023-12-20T09:53:18;14.87;;;4.80;;
51987;SDS011;38003;52.012;4.346;2023-12-20T09:55:47;18.67;;;5.67;;
51987;SDS011;38003;52.012;4.346;2023-12-20T09:58:16;10.93;;;5.30;;
51987;SDS011;38003;52.012;4.346;2023-12-20T10:00:46;14.60;;;5.37;;
51987;SDS011;38003;52.012;4.346;2023-12-20T10:03:14;18.87;;;5.27;;
51987;SDS011;38003;52.012;4.346;2023-12-20T10:05:43;15.77;;;4.90;;
51987;SDS011;38003;52.012;4.346;2023-12-20T10:08:13;13.47;;;4.53;;
51987;SDS011;38003;52.012;4.346;2023-12-20T10:10:41;14.80;;;5.03;;
51987;SDS011;38003;52.012;4.346;2023-12-20T10:13:14;14.80;;;4.67;;
51987;SDS011;38003;52.012;4.346;2023-12-20T10:15:43;16.80;;;4.53;;
51987;SDS011;38003;52.012;4.346;2023-12-20T10:18:13;15.23;;;4.33;;
51987;SDS011;38003;52.012;4.346;2023-12-20T10:20:41;15.23;;;4.67;;
51987;SDS011;38003;52.012;4.346;2023-12-20T10:23:10;11.13;;;3.83;;
51987;SDS011;38003;52.012;4.346;2023-12-20T10:25:39;11.77;;;4.20;;
51987;SDS011;38003;52.012;4.346;2023-12-20T10:28:08;15.00;;;4.47;;
51987;SDS011;38003;52.012;4.346;2023-12-20T10:30:37;18.63;;;4.83;;
51987;SDS011;38003;52.012;4.346;2023-12-20T10:33:05;12.53;;;3.87;;
51987;SDS011;38003;52.012;4.346;2023-12-20T10:35:36;9.27;;;3.63;;
51987;SDS011;38003;52.012;4.346;2023-12-20T10:38:10;17.80;;;4.47;;
51987;SDS011;38003;52.012;4.346;2023-12-20T10:40:39;11.37;;;4.40;;
51987;SDS011;38003;52.012;4.346;2023-12-20T10:43:09;18.07;;;5.93;;
51987;SDS011;38003;52.012;4.346;2023-12-20T10:45:37;15.80;;;4.73;;
51987;SDS011;38003;52.012;4.346;2023-12-20T10:48:06;16.00;;;5.07;;
51987;SDS011;38003;52.012;4.346;2023-12-20T10:50:36;12.20;;;4.40;;
51987;SDS011;38003;52.012;4.346;2023-12-20T10:53:06;16.33;;;5.20;;
51987;SDS011;38003;52.012;4.346;2023-12-20T10:55:34;13.97;;;4.40;;
51987;SDS011;38003;52.012;4.346;2023-12-20T10:58:06;19.77;;;4.83;;
51987;SDS011;38003;52.012;4.346;2023-12-20T11:00:35;22.63;;;5.90;;
51987;SDS011;38003;52.012;4.346;2023-12-20T11:03:08;18.23;;;4.80;;
51987;SDS011;38003;52.012;4.346;2023-12-20T11:05:40;16.87;;;4.70;;
51987;SDS011;38003;52.012;4.346;2023-12-20T11:08:17;12.63;;;4.60;;
51987;SDS011;38003;52.012;4.346;2023-12-20T11:10:49;15.30;;;3.90;;
51987;SDS011;38003;52.012;4.346;2023-12-20T11:13:20;7.30;;;3.27;;
51987;SDS011;38003;52.012;4.346;2023-12-20T11:15:49;8.43;;;3.17;;
51987;SDS011;38003;52.012;4.346;2023-12-20T11:18:17;10.80;;;3.30;;
51987;SDS011;38003;52.012;4.346;2023-12-20T11:20:47;10.47;;;3.20;;
51987;SDS011;38003;52.012;4.346;2023-12-20T11:23:16;17.83;;;4.27;;
51987;SDS011;38003;52.012;4.346;2023-12-20T11:25:48;13.07;;;3.77;;
51987;SDS011;38003;52.012;4.346;2023-12-20T11:28:16;14.40;;;3.57;;
51987;SDS011;38003;52.012;4.346;2023-12-20T11:30:50;12.57;;;3.20;;
51987;SDS011;38003;52.012;4.346;2023-12-20T11:33:21;11.97;;;3.20;;
51987;SDS011;38003;52.012;4.346;2023-12-20T11:35:56;15.07;;;3.47;;
51987;SDS011;38003;52.012;4.346;2023-12-20T11:38:25;8.27;;;2.47;;
51987;SDS011;38003;52.012;4.346;2023-12-20T11:40:54;13.93;;;4.37;;
51987;SDS011;38003;52.012;4.346;2023-12-20T11:43:30;10.57;;;3.47;;
51987;SDS011;38003;52.012;4.346;2023-12-20T11:46:02;17.23;;;3.70;;
51987;SDS011;38003;52.012;4.346;2023-12-20T11:48:31;14.60;;;3.90;;
51987;SDS011;38003;52.012;4.346;2023-12-20T11:51:01;16.30;;;4.70;;
51987;SDS011;38003;52.012;4.346;2023-12-20T11:53:30;10.20;;;3.40;;
51987;SDS011;38003;52.012;4.346;2023-12-20T11:56:00;14.77;;;4.60;;
51987;SDS011;38003;52.012;4.346;2023-12-20T11:58:29;12.17;;;3.90;;
51987;SDS011;38003;52.012;4.346;2023-12-20T12:00:58;9.40;;;2.90;;
51987;SDS011;38003;52.012;4.346;2023-12-20T12:03:26;12.87;;;3.67;;
51987;SDS011;38003;52.012;4.346;2023-12-20T12:05:54;14.60;;;3.33;;
51987;SDS011;38003;52.012;4.346;2023-12-20T12:08:24;13.67;;;3.13;;
51987;SDS011;38003;52.012;4.346;2023-12-20T12:10:52;22.63;;;8.37;;
51987;SDS011;38003;52.012;4.346;2023-12-20T12:13:20;13.60;;;3.03;;
51987;SDS011;38003;52.012;4.346;2023-12-20T12:15:49;12.17;;;3.13;;
51987;SDS011;38003;52.012;4.346;2023-12-20T12:18:17;8.90;;;3.23;;
51987;SDS011;38003;52.012;4.346;2023-12-20T12:20:46;18.17;;;2.90;;
51987;SDS011;38003;52.012;4.346;2023-12-20T12:23:14;12.30;;;2.50;;
51987;SDS011;38003;52.012;4.346;2023-12-20T12:25:52;12.43;;;3.10;;
51987;SDS011;38003;52.012;4.346;2023-12-20T12:28:21;11.97;;;3.43;;
51987;SDS011;38003;52.012;4.346;2023-12-20T12:30:57;10.13;;;3.00;;
51987;SDS011;38003;52.012;4.346;2023-12-20T12:33:26;13.23;;;3.37;;
51987;SDS011;38003;52.012;4.346;2023-12-20T12:35:54;13.17;;;2.93;;
51987;SDS011;38003;52.012;4.346;2023-12-20T12:38:22;13.13;;;2.90;;
51987;SDS011;38003;52.012;4.346;2023-12-20T12:40:54;11.63;;;3.03;;
51987;SDS011;38003;52.012;4.346;2023-12-20T12:43:22;11.93;;;3.10;;
51987;SDS011;38003;52.012;4.346;2023-12-20T12:45:50;12.20;;;3.20;;
51987;SDS011;38003;52.012;4.346;2023-12-20T12:48:19;13.83;;;3.60;;
51987;SDS011;38003;52.012;4.346;2023-12-20T12:50:47;15.20;;;3.57;;
51987;SDS011;38003;52.012;4.346;2023-12-20T12:53:18;13.77;;;3.20;;
51987;SDS011;38003;52.012;4.346;2023-12-20T12:55:46;13.37;;;3.53;;
51987;SDS011;38003;52.012;4.346;2023-12-20T12:58:16;17.07;;;4.53;;
51987;SDS011;38003;52.012;4.346;2023-12-20T13:00:44;14.20;;;4.13;;
51987;SDS011;38003;52.012;4.346;2023-12-20T13:03:13;15.30;;;5.47;;
51987;SDS011;38003;52.012;4.346;2023-12-20T13:05:41;16.13;;;3.90;;
51987;SDS011;38003;52.012;4.346;2023-12-20T13:08:12;10.17;;;3.50;;
51987;SDS011;38003;52.012;4.346;2023-12-20T13:10:40;18.00;;;4.30;;
51987;SDS011;38003;52.012;4.346;2023-12-20T13:13:09;11.17;;;3.33;;
51987;SDS011;38003;52.012;4.346;2023-12-20T13:15:38;16.03;;;4.53;;
51987;SDS011;38003;52.012;4.346;2023-12-20T13:18:07;14.30;;;4.93;;
51987;SDS011;38003;52.012;4.346;2023-12-20T13:20:35;15.83;;;4.43;;
51987;SDS011;38003;52.012;4.346;2023-12-20T13:23:05;16.63;;;4.40;;
51987;SDS011;38003;52.012;4.346;2023-12-20T13:25:33;17.93;;;5.10;;
51987;SDS011;38003;52.012;4.346;2023-12-20T13:28:02;16.37;;;4.67;;
51987;SDS011;38003;52.012;4.346;2023-12-20T13:30:30;16.27;;;4.40;;
51987;SDS011;38003;52.012;4.346;2023-12-20T13:33:00;12.07;;;4.10;;
51987;SDS011;38003;52.012;4.346;2023-12-20T13:35:28;12.00;;;5.57;;
51987;SDS011;38003;52.012;4.346;2023-12-20T13:37:57;15.23;;;4.90;;
51987;SDS011;38003;52.012;4.346;2023-12-20T13:40:25;15.03;;;5.40;;
51987;SDS011;38003;52.012;4.346;2023-12-20T13:42:54;13.47;;;5.17;;
51987;SDS011;38003;52.012;4.346;2023-12-20T13:45:23;14.07;;;6.13;;
51987;SDS011;38003;52.012;4.346;2023-12-20T13:47:52;16.37;;;6.03;;
51987;SDS011;38003;52.012;4.346;2023-12-20T13:50:21;20.03;;;8.47;;
51987;SDS011;38003;52.012;4.346;2023-12-20T13:52:50;15.13;;;6.77;;
51987;SDS011;38003;52.012;4.346;2023-12-20T13:55:18;16.10;;;6.60;;
51987;SDS011;38003;52.012;4.346;2023-12-20T13:57:48;17.10;;;6.97;;
51987;SDS011;38003;52.012;4.346;2023-12-20T14:00:21;12.13;;;6.33;;
51987;SDS011;38003;52.012;4.346;2023-12-20T14:02:49;14.53;;;6.93;;
51987;SDS011;38003;52.012;4.346;2023-12-20T14:05:18;14.53;;;6.57;;
51987;SDS011;38003;52.012;4.346;2023-12-20T14:07:51;16.60;;;8.03;;
51987;SDS011;38003;52.012;4.346;2023-12-20T14:10:19;17.30;;;8.20;;
51987;SDS011;38003;52.012;4.346;2023-12-20T14:12:48;15.97;;;7.80;;
51987;SDS011;38003;52.012;4.346;2023-12-20T14:15:16;17.47;;;7.60;;
51987;SDS011;38003;52.012;4.346;2023-12-20T14:17:44;23.87;;;9.47;;
51987;SDS011;38003;52.012;4.346;2023-12-20T14:20:13;15.90;;;8.77;;
51987;SDS011;38003;52.012;4.346;2023-12-20T14:22:42;13.03;;;8.27;;
51987;SDS011;38003;52.012;4.346;2023-12-20T14:25:12;12.20;;;7.33;;
51987;SDS011;38003;52.012;4.346;2023-12-20T14:27:41;15.33;;;9.60;;
51987;SDS011;38003;52.012;4.346;2023-12-20T14:30:12;20.77;;;8.97;;
51987;SDS011;38003;52.012;4.346;2023-12-20T14:32:41;11.90;;;7.87;;
51987;SDS011;38003;52.012;4.346;2023-12-20T14:35:09;14.10;;;6.70;;
51987;SDS011;38003;52.012;4.346;2023-12-20T14:37:38;14.00;;;8.47;;
51987;SDS011;38003;52.012;4.346;2023-12-20T14:40:07;12.37;;;7.43;;
51987;SDS011;38003;52.012;4.346;2023-12-20T14:42:42;10.20;;;8.07;;
51987;SDS011;38003;52.012;4.346;2023-12-20T14:45:10;20.13;;;12.90;;
51987;SDS011;38003;52.012;4.346;2023-12-20T14:47:40;15.30;;;9.43;;